createdAt,value
2023-10-01T00:00:28.108Z,98084.66
2023-10-01T00:02:56.865Z,98084.75
2023-10-01T00:05:26.732Z,98081.38
2023-10-01T00:07:53.576Z,98077.25
2023-10-01T00:10:21.851Z,98073.00
2023-10-01T00:12:51.948Z,98081.88
2023-10-01T00:15:23.155Z,98083.75
2023-10-01T00:17:52.872Z,98074.03
2023-10-01T00:20:27.771Z,98079.22
2023-10-01T00:22:58.873Z,98078.88
2023-10-01T00:25:26.100Z,98082.75
2023-10-01T00:27:53.353Z,98073.63
2023-10-01T00:30:23.470Z,98079.22
2023-10-01T00:32:53.467Z,98084.97
2023-10-01T00:35:20.928Z,98074.16
2023-10-01T00:37:48.971Z,98072.31
2023-10-01T00:40:15.710Z,98070.50
2023-10-01T00:42:42.633Z,98069.00
2023-10-01T00:45:14.972Z,98078.06
2023-10-01T00:47:43.472Z,98082.47
2023-10-01T00:50:17.331Z,98075.50
2023-10-01T00:52:46.265Z,98080.88
2023-10-01T00:55:15.118Z,98079.22
2023-10-01T00:57:42.820Z,98075.91
2023-10-01T01:00:14.011Z,98081.34
2023-10-01T01:03:03.691Z,98079.13
2023-10-01T01:05:37.006Z,98082.94
2023-10-01T01:08:38.037Z,98080.59
2023-10-01T01:11:05.006Z,98072.19
2023-10-01T01:13:35.031Z,98062.66
2023-10-01T01:16:02.325Z,98056.59
2023-10-01T01:18:29.428Z,98069.34
2023-10-01T01:21:12.854Z,98068.78
2023-10-01T01:23:42.558Z,98068.41
2023-10-01T01:26:11.563Z,98072.94
2023-10-01T01:28:38.489Z,98066.22
2023-10-01T01:31:06.326Z,98061.38
2023-10-01T01:34:00.331Z,98066.97
2023-10-01T01:36:31.483Z,98063.94
2023-10-01T01:39:27.726Z,98073.47
2023-10-01T01:41:55.967Z,98070.88
2023-10-01T01:44:24.233Z,98076.44
2023-10-01T01:46:51.325Z,98065.31
2023-10-01T01:49:26.118Z,98067.38
2023-10-01T01:52:05.294Z,98069.53
2023-10-01T01:54:47.670Z,98060.28
2023-10-01T01:57:17.453Z,98070.41
2023-10-01T01:59:44.993Z,98065.56
2023-10-01T02:02:12.566Z,98065.75
2023-10-01T02:04:59.615Z,98072.91
2023-10-01T02:07:26.292Z,98071.22
2023-10-01T02:09:52.936Z,98071.31
2023-10-01T02:12:31.288Z,98077.75
2023-10-01T02:14:57.928Z,98075.50
2023-10-01T02:17:27.329Z,98074.81
2023-10-01T02:23:15.105Z,98072.41
2023-10-01T02:29:14.633Z,98061.63
2023-10-01T02:42:23.209Z,98060.94
2023-10-01T02:45:25.036Z,98062.28
2023-10-01T02:48:11.425Z,98065.25
2023-10-01T03:05:12.366Z,98060.28
2023-10-01T03:07:46.234Z,98051.63
2023-10-01T03:10:31.395Z,98046.34
2023-10-01T03:13:01.683Z,98058.81
2023-10-01T03:15:36.449Z,98053.72
2023-10-01T03:18:09.846Z,98059.25
2023-10-01T03:20:41.069Z,98056.00
2023-10-01T03:33:31.799Z,98057.47
2023-10-01T03:35:58.830Z,98056.50
2023-10-01T03:38:28.703Z,98059.22
2023-10-01T03:41:00.799Z,98062.09
2023-10-01T03:43:39.518Z,98062.25
2023-10-01T03:46:13.236Z,98068.47
2023-10-01T04:06:59.396Z,98066.13
2023-10-01T04:13:21.454Z,98071.94
2023-10-01T04:15:55.657Z,98076.59
2023-10-01T04:22:27.223Z,98070.16
2023-10-01T04:25:02.742Z,98069.38
2023-10-01T04:27:31.401Z,98066.00
2023-10-01T04:33:46.463Z,98070.00
2023-10-01T04:40:00.684Z,98065.50
2023-10-01T04:42:27.216Z,98073.38
2023-10-01T04:44:53.754Z,98071.84
2023-10-01T04:47:32.446Z,98074.53
2023-10-01T04:49:59.015Z,98072.91
2023-10-01T04:52:25.748Z,98070.53
2023-10-01T04:54:52.359Z,98080.09
2023-10-01T04:57:58.184Z,98076.78
2023-10-01T05:00:26.825Z,98073.53
2023-10-01T05:02:53.628Z,98066.41
2023-10-01T05:05:26.704Z,98080.63
2023-10-01T05:07:57.923Z,98078.16
2023-10-01T05:10:27.908Z,98078.31
2023-10-01T05:12:59.671Z,98069.47
2023-10-01T05:15:26.862Z,98082.78
2023-10-01T05:19:09.516Z,98081.69
2023-10-01T05:21:47.697Z,98085.31
2023-10-01T05:24:39.538Z,98095.06
2023-10-01T05:27:19.507Z,98093.28
2023-10-01T05:29:46.629Z,98098.47
2023-10-01T05:32:13.737Z,98105.34
2023-10-01T05:34:49.128Z,98106.06
2023-10-01T05:37:26.231Z,98104.06
2023-10-01T05:42:43.295Z,98107.44
2023-10-01T05:45:31.956Z,98108.78
2023-10-01T05:48:02.882Z,98105.97
2023-10-01T05:50:31.132Z,98099.19
2023-10-01T05:52:58.408Z,98105.91
2023-10-01T05:55:25.532Z,98106.00
2023-10-01T05:57:53.561Z,98103.66
2023-10-01T06:00:26.239Z,98109.69
2023-10-01T06:03:02.604Z,98113.72
2023-10-01T06:05:44.277Z,98110.72
2023-10-01T06:08:18.779Z,98115.63
2023-10-01T06:10:49.006Z,98123.84
2023-10-01T06:13:19.088Z,98115.28
2023-10-01T06:15:45.906Z,98110.94
2023-10-01T06:18:13.828Z,98114.66
2023-10-01T06:20:42.358Z,98106.28
2023-10-01T06:23:09.029Z,98111.44
2023-10-01T06:25:41.948Z,98111.06
2023-10-01T06:28:10.356Z,98104.53
2023-10-01T06:30:44.373Z,98113.47
2023-10-01T06:33:47.147Z,98106.56
2023-10-01T06:36:17.092Z,98102.09
2023-10-01T06:38:46.023Z,98110.38
2023-10-01T06:41:36.652Z,98111.66
2023-10-01T06:44:03.545Z,98118.75
2023-10-01T06:46:31.310Z,98122.44
2023-10-01T06:49:00.150Z,98121.84
2023-10-01T06:51:49.309Z,98129.72
2023-10-01T06:54:23.408Z,98133.59
2023-10-01T06:56:54.569Z,98130.44
2023-10-01T06:59:30.388Z,98135.03
2023-10-01T07:02:03.209Z,98143.72
2023-10-01T07:04:33.341Z,98146.50
2023-10-01T07:07:01.123Z,98147.75
2023-10-01T07:09:35.601Z,98143.25
2023-10-01T07:12:05.277Z,98142.41
2023-10-01T07:14:39.807Z,98145.81
2023-10-01T07:17:09.831Z,98134.50
2023-10-01T07:19:37.912Z,98138.19
2023-10-01T07:22:07.681Z,98122.25
2023-10-01T07:24:37.843Z,98124.09
2023-10-01T07:27:05.145Z,98120.31
2023-10-01T07:29:35.000Z,98121.69
2023-10-01T07:32:08.986Z,98118.97
2023-10-01T07:35:07.686Z,98123.16
2023-10-01T07:38:06.443Z,98128.59
2023-10-01T07:41:21.613Z,98136.06
2023-10-01T07:47:30.680Z,98147.41
2023-10-01T07:50:13.582Z,98146.91
2023-10-01T07:52:42.223Z,98148.41
2023-10-01T07:55:28.288Z,98147.50
2023-10-01T07:58:20.066Z,98147.50
2023-10-01T08:01:26.166Z,98146.13
2023-10-01T08:03:57.341Z,98147.75
2023-10-01T08:06:31.287Z,98154.09
2023-10-01T08:09:01.438Z,98155.16
2023-10-01T08:11:47.083Z,98158.78
2023-10-01T08:17:47.560Z,98148.75
2023-10-01T08:20:22.742Z,98147.16
2023-10-01T08:23:29.617Z,98146.38
2023-10-01T08:25:57.487Z,98143.75
2023-10-01T08:28:24.773Z,98140.13
2023-10-01T08:31:02.462Z,98135.84
2023-10-01T08:34:07.835Z,98137.78
2023-10-01T08:36:51.279Z,98140.84
2023-10-01T08:39:35.103Z,98136.63
2023-10-01T08:42:14.065Z,98134.03
2023-10-01T08:44:45.740Z,98128.72
2023-10-01T08:47:56.841Z,98130.78
2023-10-01T08:50:31.014Z,98134.47
2023-10-01T08:53:22.376Z,98129.47
2023-10-01T08:55:49.113Z,98132.47
2023-10-01T08:58:20.592Z,98127.66
2023-10-01T09:01:22.869Z,98137.09
2023-10-01T09:03:50.720Z,98133.50
2023-10-01T09:06:34.122Z,98127.06
2023-10-01T09:09:22.764Z,98127.00
2023-10-01T09:11:51.967Z,98120.97
2023-10-01T09:14:19.245Z,98124.22
2023-10-01T09:17:04.166Z,98130.44
2023-10-01T09:19:53.575Z,98120.13
2023-10-01T09:22:42.663Z,98116.25
2023-10-01T09:25:20.534Z,98118.19
2023-10-01T09:27:58.506Z,98117.97
2023-10-01T09:30:29.454Z,98119.38
2023-10-01T09:33:06.065Z,98112.44
2023-10-01T09:35:41.989Z,98112.72
2023-10-01T09:38:12.995Z,98117.31
2023-10-01T09:40:57.478Z,98117.41
2023-10-01T09:43:28.726Z,98111.09
2023-10-01T09:46:07.808Z,98115.31
2023-10-01T09:48:49.971Z,98117.47
2023-10-01T09:51:20.860Z,98114.41
2023-10-01T09:53:52.123Z,98112.47
2023-10-01T09:56:40.919Z,98109.72
2023-10-01T09:59:09.295Z,98112.41
2023-10-01T10:01:37.199Z,98117.34
2023-10-01T10:04:04.884Z,98117.31
2023-10-01T10:06:32.688Z,98103.25
2023-10-01T10:09:06.070Z,98106.13
2023-10-01T10:11:42.240Z,98108.25
2023-10-01T10:14:29.974Z,98110.41
2023-10-01T10:17:20.406Z,98108.44
2023-10-01T10:20:41.064Z,98109.06
2023-10-01T10:23:18.298Z,98108.38
2023-10-01T10:25:45.278Z,98106.31
2023-10-01T10:28:13.961Z,98113.47
2023-10-01T10:30:49.378Z,98112.06
2023-10-01T10:33:16.198Z,98113.06
2023-10-01T10:35:52.207Z,98101.16
2023-10-01T10:39:31.615Z,98105.19
2023-10-01T10:42:29.397Z,98099.69
2023-10-01T10:45:21.158Z,98095.66
2023-10-01T10:48:22.889Z,98095.81
2023-10-01T10:51:12.236Z,98098.63
2023-10-01T10:53:44.370Z,98094.00
2023-10-01T10:56:12.194Z,98091.31
2023-10-01T10:58:45.850Z,98089.72
2023-10-01T11:01:22.311Z,98075.19
2023-10-01T11:03:51.665Z,98081.09
2023-10-01T11:06:19.453Z,98075.03
2023-10-01T11:08:52.649Z,98074.56
2023-10-01T11:11:34.067Z,98083.63
2023-10-01T11:14:07.870Z,98077.94
2023-10-01T11:16:35.126Z,98067.88
2023-10-01T11:19:13.549Z,98061.75
2023-10-01T11:21:56.095Z,98064.41
2023-10-01T11:24:26.812Z,98052.06
2023-10-01T11:27:12.347Z,98044.38
2023-10-01T11:29:40.247Z,98042.94
2023-10-01T11:32:08.072Z,98043.38
2023-10-01T11:34:44.697Z,98032.00
2023-10-01T11:37:36.828Z,98028.75
2023-10-01T11:40:11.286Z,98023.81
2023-10-01T11:42:39.392Z,98020.63
2023-10-01T11:45:34.420Z,98027.78
2023-10-01T11:48:21.187Z,98023.88
2023-10-01T11:50:51.789Z,98018.94
2023-10-01T11:53:29.626Z,98018.47
2023-10-01T11:56:02.626Z,98010.03
2023-10-01T11:58:29.997Z,98010.22
2023-10-01T12:01:32.315Z,98001.91
2023-10-01T12:04:01.196Z,97994.84
2023-10-01T12:06:35.393Z,97987.41
2023-10-01T12:09:02.337Z,97988.38
2023-10-01T12:11:33.613Z,97983.31
2023-10-01T12:14:26.451Z,97985.72
2023-10-01T12:16:55.423Z,97983.34
2023-10-01T12:19:25.539Z,97973.09
2023-10-01T12:22:07.560Z,97974.75
2023-10-01T12:24:46.671Z,97971.94
2023-10-01T12:27:38.516Z,97969.28
2023-10-01T12:30:05.907Z,97960.28
2023-10-01T12:32:42.960Z,97964.75
2023-10-01T12:35:19.861Z,97962.97
2023-10-01T12:38:12.438Z,97959.34
2023-10-01T12:40:38.994Z,97957.31
2023-10-01T12:43:25.928Z,97958.97
2023-10-01T12:45:59.857Z,97956.63
2023-10-01T12:48:26.376Z,97958.84
2023-10-01T12:51:01.829Z,97952.69
2023-10-01T12:53:28.569Z,97949.41
2023-10-01T12:55:55.041Z,97948.28
2023-10-01T12:58:36.749Z,97938.72
2023-10-01T13:01:04.278Z,97935.16
2023-10-01T13:03:30.936Z,97941.78
2023-10-01T13:05:57.471Z,97942.28
2023-10-01T13:08:30.281Z,97927.41
2023-10-01T13:10:59.506Z,97934.84
2023-10-01T13:13:31.216Z,97922.22
2023-10-01T13:16:02.221Z,97924.97
2023-10-01T13:18:32.525Z,97920.47
2023-10-01T13:20:59.299Z,97912.81
2023-10-01T13:23:26.391Z,97909.03
2023-10-01T13:26:08.450Z,97914.47
2023-10-01T13:28:47.433Z,97905.03
2023-10-01T13:31:30.907Z,97900.19
2023-10-01T13:34:13.064Z,97915.13
2023-10-01T13:37:12.005Z,97905.72
2023-10-01T13:39:38.942Z,97907.00
2023-10-01T13:42:24.832Z,97907.03
2023-10-01T13:45:10.231Z,97897.94
2023-10-01T13:47:55.283Z,97898.81
2023-10-01T13:50:40.348Z,97895.78
2023-10-01T13:53:25.667Z,97885.91
2023-10-01T13:56:11.065Z,97890.28
2023-10-01T13:58:56.476Z,97888.75
2023-10-01T14:01:41.894Z,97885.88
2023-10-01T14:04:27.898Z,97880.16
2023-10-01T14:07:13.409Z,97879.56
2023-10-01T14:09:50.171Z,97877.34
2023-10-01T14:12:41.013Z,97875.56
2023-10-01T14:15:25.967Z,97869.34
2023-10-01T14:17:54.919Z,97876.44
2023-10-01T14:20:39.021Z,97874.53
2023-10-01T14:23:08.548Z,97871.38
2023-10-01T14:25:56.702Z,97873.13
2023-10-01T14:28:24.588Z,97880.13
2023-10-01T14:31:04.066Z,97874.63
2023-10-01T14:33:30.863Z,97870.97
2023-10-01T14:36:03.802Z,97873.03
2023-10-01T14:38:38.559Z,97870.44
2023-10-01T14:41:16.518Z,97870.47
2023-10-01T14:43:52.520Z,97875.13
2023-10-01T14:46:20.856Z,97867.13
2023-10-01T14:48:47.816Z,97863.53
2023-10-01T14:51:27.166Z,97871.50
2023-10-01T14:53:55.768Z,97872.91
2023-10-01T14:56:22.977Z,97873.41
2023-10-01T14:58:52.562Z,97874.94
2023-10-01T15:01:20.496Z,97873.66
2023-10-01T15:03:55.050Z,97880.22
2023-10-01T15:06:24.166Z,97873.16
2023-10-01T15:09:01.002Z,97875.00
2023-10-01T15:11:27.949Z,97878.41
2023-10-01T15:13:55.963Z,97875.38
2023-10-01T15:16:37.811Z,97875.03
2023-10-01T15:19:13.793Z,97871.53
2023-10-01T15:21:43.938Z,97874.03
2023-10-01T15:24:10.640Z,97866.81
2023-10-01T15:26:44.969Z,97864.09
2023-10-01T15:29:15.493Z,97868.28
2023-10-01T15:31:47.130Z,97880.84
2023-10-01T15:34:22.708Z,97879.84
2023-10-01T15:36:50.539Z,97874.78
2023-10-01T15:39:39.527Z,97877.09
2023-10-01T15:42:16.559Z,97881.59
2023-10-01T15:44:52.067Z,97879.91
2023-10-01T15:47:43.321Z,97872.81
2023-10-01T15:50:15.066Z,97881.34
2023-10-01T15:52:54.166Z,97874.91
2023-10-01T15:55:23.299Z,97880.22
2023-10-01T15:58:08.330Z,97887.91
2023-10-01T16:01:17.288Z,97881.81
2023-10-01T16:03:57.615Z,97882.22
2023-10-01T16:06:29.420Z,97879.84
2023-10-01T16:08:59.576Z,97879.63
2023-10-01T16:19:48.917Z,97889.03
2023-10-01T16:22:43.413Z,97881.59
2023-10-01T16:25:14.592Z,97887.16
2023-10-01T16:27:53.508Z,97886.69
2023-10-01T16:47:51.512Z,97883.91
2023-10-01T17:19:31.117Z,97908.91
2023-10-01T17:39:18.712Z,97926.34
2023-10-01T17:47:23.866Z,97924.78
2023-10-01T17:53:06.715Z,97930.84
2023-10-01T18:50:45.452Z,97955.63
2023-10-01T19:01:26.548Z,97953.28
2023-10-01T19:11:52.587Z,97961.63
2023-10-01T19:14:22.253Z,97966.28
2023-10-01T19:16:51.138Z,97972.56
2023-10-01T19:19:22.456Z,97974.47
2023-10-01T19:21:55.679Z,97968.41
2023-10-01T19:24:28.747Z,97974.06
2023-10-01T19:26:55.877Z,97972.59
2023-10-01T19:29:26.014Z,97976.53
2023-10-01T19:31:55.093Z,97978.44
2023-10-01T19:34:23.707Z,97976.53
2023-10-01T19:37:16.096Z,97970.59
2023-10-01T19:40:24.085Z,97969.84
2023-10-01T19:43:28.664Z,97972.81
2023-10-01T19:46:19.227Z,97970.06
2023-10-01T19:53:13.881Z,97969.13
2023-10-01T19:59:52.157Z,97977.44
2023-10-01T20:02:47.564Z,97986.03
2023-10-01T20:13:15.115Z,97982.09
2023-10-01T20:15:46.743Z,97975.53
2023-10-01T20:18:20.848Z,97973.31
2023-10-01T20:20:57.365Z,97976.28
2023-10-01T20:23:28.036Z,97976.28
2023-10-01T20:26:14.051Z,97983.03
2023-10-01T20:32:21.146Z,97981.97
2023-10-01T20:38:34.128Z,97981.00
2023-10-01T20:41:18.390Z,97983.94
2023-10-01T20:44:09.132Z,97994.84
2023-10-01T20:48:16.073Z,97983.59
2023-10-01T20:50:37.436Z,97989.94
2023-10-01T20:53:09.331Z,97991.94
2023-10-01T20:55:36.613Z,97985.16
2023-10-01T20:58:06.605Z,97988.28
2023-10-01T21:00:43.322Z,97986.03
2023-10-01T21:03:13.379Z,97996.16
2023-10-01T21:05:41.308Z,97974.66
2023-10-01T21:08:15.381Z,97974.97
2023-10-01T21:10:54.260Z,97975.47
2023-10-01T21:13:31.673Z,97973.97
2023-10-01T21:19:09.444Z,97975.00
2023-10-01T21:21:43.734Z,97978.69
2023-10-01T21:37:39.711Z,97972.94
2023-10-01T21:43:50.240Z,97972.94
2023-10-01T21:47:22.753Z,97960.78
2023-10-01T22:05:48.618Z,97964.72
2023-10-01T22:08:26.365Z,97961.16
2023-10-01T22:23:03.128Z,97953.34
2023-10-01T23:27:05.575Z,97943.00
